createdAt,value
2017-11-04T00:01:34.907Z,96145.95
2017-11-04T00:04:02.537Z,96138.27
2017-11-04T00:06:30.106Z,96131.45
2017-11-04T00:08:57.721Z,96126.22
2017-11-04T00:11:25.324Z,96131.59
2017-11-04T00:13:53.126Z,96130.70
2017-11-04T00:16:20.715Z,96130.77
2017-11-04T00:18:48.270Z,96123.77
2017-11-04T00:21:15.876Z,96126.91
2017-11-04T00:23:43.506Z,96121.78
2017-11-04T00:26:11.093Z,96118.80
2017-11-04T00:28:38.641Z,96110.62
2017-11-04T00:31:06.313Z,96112.29
2017-11-04T00:33:33.905Z,96113.06
2017-11-04T00:36:01.510Z,96106.52
2017-11-04T00:38:29.169Z,96100.63
2017-11-04T00:40:56.717Z,96100.38
2017-11-04T00:43:24.279Z,96096.37
2017-11-04T00:45:51.860Z,96096.12
2017-11-04T00:48:19.434Z,96091.06
2017-11-04T00:50:47.032Z,96080.20
2017-11-04T00:53:14.718Z,96083.97
2017-11-04T00:55:42.297Z,96087.26
2017-11-04T00:58:09.882Z,96079.17
2017-11-04T01:00:37.505Z,96082.00
2017-11-04T01:03:05.377Z,96081.30
2017-11-04T01:05:32.934Z,96082.05
2017-11-04T01:08:00.557Z,96080.41
2017-11-04T01:10:28.190Z,96079.80
2017-11-04T01:12:55.815Z,96080.94
2017-11-04T01:15:23.395Z,96076.09
2017-11-04T01:17:50.980Z,96070.56
2017-11-04T01:20:18.576Z,96062.92
2017-11-04T01:22:46.286Z,96063.33
2017-11-04T01:25:13.877Z,96060.27
2017-11-04T01:27:41.467Z,96059.52
2017-11-04T01:30:09.198Z,96053.87
2017-11-04T01:32:36.802Z,96053.42
2017-11-04T01:35:04.399Z,96051.42
2017-11-04T01:37:32.117Z,96047.80
2017-11-04T01:39:59.687Z,96043.20
2017-11-04T01:42:27.248Z,96043.44
2017-11-04T01:44:54.849Z,96040.39
2017-11-04T01:47:22.456Z,96033.65
2017-11-04T01:49:50.049Z,96035.78
2017-11-04T01:52:17.680Z,96038.79
2017-11-04T01:54:45.294Z,96031.36
2017-11-04T01:57:12.898Z,96032.98
2017-11-04T01:59:40.484Z,96034.02
2017-11-04T02:02:08.063Z,96033.23
2017-11-04T02:04:35.647Z,96034.20
2017-11-04T02:07:03.256Z,96029.16
2017-11-04T02:09:30.853Z,96021.95
2017-11-04T02:11:58.511Z,96022.66
2017-11-04T02:14:26.088Z,96017.63
2017-11-04T02:16:53.704Z,96017.66
2017-11-04T02:19:21.299Z,96021.75
2017-11-04T02:21:48.881Z,96022.66
2017-11-04T02:24:16.500Z,96016.84
2017-11-04T02:26:44.086Z,96022.86
2017-11-04T02:29:12.258Z,96023.77
2017-11-04T02:31:39.851Z,96022.92
2017-11-04T02:34:07.472Z,96015.77
2017-11-04T02:36:35.037Z,96015.23
2017-11-04T02:39:02.661Z,96020.71
2017-11-04T02:41:30.250Z,96014.70
2017-11-04T02:43:57.817Z,96015.20
2017-11-04T02:46:25.380Z,96007.05
2017-11-04T02:48:52.964Z,96011.05
2017-11-04T02:51:21.643Z,96013.77
2017-11-04T02:53:49.315Z,96004.30
2017-11-04T02:56:17.010Z,96000.93
2017-11-04T02:58:44.585Z,96002.81
2017-11-04T03:01:12.287Z,96003.47
2017-11-04T03:03:42.255Z,95999.98
2017-11-04T03:06:09.898Z,96005.61
2017-11-04T03:08:37.501Z,96001.20
2017-11-04T03:11:05.356Z,96000.82
2017-11-04T03:13:33.355Z,95999.34
2017-11-04T03:16:01.796Z,95995.45
2017-11-04T03:18:29.384Z,95997.14
2017-11-04T03:20:56.975Z,95997.84
2017-11-04T03:23:24.739Z,95995.48
2017-11-04T03:25:52.341Z,95992.94
2017-11-04T03:28:19.919Z,95988.95
2017-11-04T03:30:47.539Z,95992.59
2017-11-04T03:33:15.126Z,95990.00
2017-11-04T03:35:44.274Z,95988.89
2017-11-04T03:38:11.879Z,95988.69
2017-11-04T03:40:40.523Z,95987.28
2017-11-04T03:43:10.385Z,95986.29
2017-11-04T03:45:38.869Z,95982.89
2017-11-04T03:48:06.423Z,95986.98
2017-11-04T03:50:34.054Z,95981.73
2017-11-04T03:53:01.889Z,95979.48
2017-11-04T03:55:29.601Z,95983.22
2017-11-04T03:57:58.245Z,95980.88
2017-11-04T04:00:25.817Z,95972.48
2017-11-04T04:02:53.389Z,95972.56
2017-11-04T04:05:21.694Z,95966.50
2017-11-04T04:07:49.499Z,95962.59
2017-11-04T04:10:17.086Z,95968.38
2017-11-04T04:12:44.693Z,95964.73
2017-11-04T04:15:12.831Z,95965.53
2017-11-04T04:17:40.381Z,95957.67
2017-11-04T04:20:07.940Z,95962.25
2017-11-04T04:22:35.529Z,95961.34
2017-11-04T04:25:03.102Z,95954.14
2017-11-04T04:27:31.676Z,95951.17
2017-11-04T04:29:59.285Z,95952.88
2017-11-04T04:32:26.859Z,95952.13
2017-11-04T04:34:57.273Z,95948.54
2017-11-04T04:37:24.870Z,95957.73
2017-11-04T04:39:52.491Z,95952.83
2017-11-04T04:42:20.077Z,95955.10
2017-11-04T04:44:47.697Z,95948.31
2017-11-04T04:47:15.307Z,95953.45
2017-11-04T04:49:42.891Z,95952.14
2017-11-04T04:52:10.519Z,95948.73
2017-11-04T04:54:38.093Z,95955.12
2017-11-04T04:57:05.761Z,95949.75
2017-11-04T04:59:33.390Z,95952.03
2017-11-04T05:02:00.952Z,95954.88
2017-11-04T05:04:28.495Z,95952.39
2017-11-04T05:06:56.103Z,95947.40
2017-11-04T05:09:24.457Z,95957.44
2017-11-04T05:11:52.424Z,95956.20
2017-11-04T05:14:20.065Z,95954.41
2017-11-04T05:16:47.649Z,95952.23
2017-11-04T05:19:15.213Z,95955.19
2017-11-04T05:21:42.846Z,95958.66
2017-11-04T05:24:10.669Z,95958.48
2017-11-04T05:26:38.266Z,95956.53
2017-11-04T05:29:05.949Z,95953.60
2017-11-04T05:31:35.188Z,95955.16
2017-11-04T05:34:02.794Z,95955.48
2017-11-04T05:36:30.386Z,95960.66
2017-11-04T05:38:57.952Z,95962.16
2017-11-04T05:41:25.561Z,95960.51
2017-11-04T05:43:53.884Z,95960.05
2017-11-04T05:46:22.442Z,95961.94
2017-11-04T05:48:50.034Z,95965.80
2017-11-04T05:51:17.603Z,95961.75
2017-11-04T05:53:45.185Z,95965.80
2017-11-04T05:56:12.899Z,95970.70
2017-11-04T05:58:40.524Z,95966.80
2017-11-04T06:01:08.150Z,95966.73
2017-11-04T06:03:36.704Z,95973.02
2017-11-04T06:06:04.328Z,95974.55
2017-11-04T06:08:31.949Z,95979.61
2017-11-04T06:10:59.539Z,95975.55
2017-11-04T06:13:27.972Z,95978.31
2017-11-04T06:15:55.547Z,95985.48
2017-11-04T06:18:23.314Z,95977.13
2017-11-04T06:20:51.172Z,95981.98
2017-11-04T06:23:18.788Z,95981.01
2017-11-04T06:25:46.358Z,95983.47
2017-11-04T06:28:13.994Z,95983.83
2017-11-04T06:30:41.585Z,95985.01
2017-11-04T06:33:09.695Z,95984.19
2017-11-04T06:35:37.535Z,95979.44
2017-11-04T06:38:05.089Z,95979.70
2017-11-04T06:40:32.669Z,95981.01
2017-11-04T06:43:00.266Z,95984.65
2017-11-04T06:45:27.853Z,95982.28
2017-11-04T06:47:55.411Z,95986.45
2017-11-04T06:50:22.996Z,95980.45
2017-11-04T06:52:50.545Z,95980.77
2017-11-04T06:55:18.102Z,95987.09
2017-11-04T06:57:45.670Z,95980.99
2017-11-04T07:00:13.241Z,95981.00
2017-11-04T07:02:40.864Z,95989.78
2017-11-04T07:05:08.575Z,95981.36
2017-11-04T07:07:36.153Z,95985.63
2017-11-04T07:10:06.816Z,95984.70
2017-11-04T07:12:34.404Z,95984.11
2017-11-04T07:15:03.049Z,95985.50
2017-11-04T07:17:30.655Z,95987.36
2017-11-04T07:19:59.353Z,95979.73
2017-11-04T07:22:29.053Z,95990.79
2017-11-04T07:24:56.730Z,95986.63
2017-11-04T07:27:24.898Z,95990.36
2017-11-04T07:29:54.054Z,95984.02
2017-11-04T07:32:22.243Z,95983.61
2017-11-04T07:34:49.905Z,95987.52
2017-11-04T07:37:17.497Z,95986.36
2017-11-04T07:39:45.103Z,95989.59
2017-11-04T07:42:12.746Z,95990.58
2017-11-04T07:44:42.000Z,95993.28
2017-11-04T07:47:09.750Z,95987.09
2017-11-04T07:49:37.319Z,95986.44
2017-11-04T07:52:08.605Z,95991.26
2017-11-04T07:54:37.875Z,95988.21
2017-11-04T07:57:07.057Z,95988.06
2017-11-04T07:59:34.660Z,95981.70
2017-11-04T08:02:02.213Z,95987.50
2017-11-04T08:04:29.802Z,95982.08
2017-11-04T08:06:57.360Z,95982.50
2017-11-04T08:09:25.816Z,95980.88
2017-11-04T08:11:53.376Z,95979.70
2017-11-04T08:14:21.127Z,95982.05
2017-11-04T08:16:48.819Z,95978.83
2017-11-04T08:19:17.333Z,95978.86
2017-11-04T08:21:44.913Z,95978.48
2017-11-04T08:24:12.466Z,95982.64
2017-11-04T08:26:40.013Z,95982.06
2017-11-04T08:29:07.646Z,95980.16
2017-11-04T08:31:35.240Z,95972.94
2017-11-04T08:34:02.821Z,95973.12
2017-11-04T08:36:30.386Z,95973.67
2017-11-04T08:38:57.960Z,95976.37
2017-11-04T08:41:25.810Z,95983.56
2017-11-04T08:43:53.594Z,95973.64
2017-11-04T08:46:22.642Z,95978.92
2017-11-04T08:48:50.229Z,95977.25
2017-11-04T08:51:21.621Z,95980.67
2017-11-04T08:53:49.246Z,95977.89
2017-11-04T08:56:16.862Z,95972.81
2017-11-04T08:58:44.421Z,95981.83
2017-11-04T09:01:12.011Z,95980.03
2017-11-04T09:03:39.572Z,95974.98
2017-11-04T09:06:07.306Z,95976.67
2017-11-04T09:08:34.877Z,95977.61
2017-11-04T09:11:02.458Z,95981.55
2017-11-04T09:13:30.064Z,95976.54
2017-11-04T09:15:57.645Z,95982.09
2017-11-04T09:18:25.692Z,95974.70
2017-11-04T09:20:53.322Z,95975.28
2017-11-04T09:23:20.921Z,95977.17
2017-11-04T09:25:48.580Z,95974.32
2017-11-04T09:28:16.274Z,95974.28
2017-11-04T09:33:35.416Z,95973.12
2017-11-04T09:36:02.997Z,95968.94
2017-11-04T09:38:30.621Z,95975.23
2017-11-04T09:40:58.230Z,95965.88
2017-11-04T09:43:27.744Z,95966.12
2017-11-04T09:45:55.314Z,95965.44
2017-11-04T09:48:23.619Z,95970.22
2017-11-04T09:50:51.197Z,95966.14
2017-11-04T09:53:18.869Z,95963.55
2017-11-04T09:55:46.803Z,95964.16
2017-11-04T09:58:14.360Z,95962.78
2017-11-04T10:00:41.956Z,95960.79
2017-11-04T10:03:09.847Z,95966.27
2017-11-04T10:05:38.598Z,95962.55
2017-11-04T10:08:06.206Z,95957.47
2017-11-04T10:10:33.791Z,95951.23
2017-11-04T10:13:01.376Z,95952.63
2017-11-04T10:15:29.012Z,95946.12
2017-11-04T10:17:56.604Z,95950.95
2017-11-04T10:20:24.188Z,95953.66
2017-11-04T10:22:51.814Z,95946.98
2017-11-04T10:25:19.714Z,95944.63
2017-11-04T10:27:47.316Z,95949.16
2017-11-04T10:30:14.911Z,95942.73
2017-11-04T10:32:42.493Z,95937.55
2017-11-04T10:35:10.460Z,95931.44
2017-11-04T10:37:38.073Z,95939.22
2017-11-04T10:40:05.629Z,95931.84
2017-11-04T10:42:43.077Z,95938.45
2017-11-04T10:45:11.044Z,95927.95
2017-11-04T10:47:38.631Z,95927.08
2017-11-04T10:50:06.239Z,95930.60
2017-11-04T10:52:33.825Z,95922.13
2017-11-04T10:55:01.421Z,95918.77
2017-11-04T10:57:29.033Z,95915.41
2017-11-04T10:59:57.031Z,95925.28
2017-11-04T11:02:24.659Z,95923.51
2017-11-04T11:04:52.313Z,95924.28
2017-11-04T11:07:20.126Z,95917.66
2017-11-04T11:09:47.829Z,95925.44
2017-11-04T11:12:15.598Z,95925.97
2017-11-04T11:14:45.860Z,95920.94
2017-11-04T11:17:16.747Z,95916.93
2017-11-04T11:19:45.249Z,95917.23
2017-11-04T11:22:12.812Z,95914.52
2017-11-04T11:24:40.383Z,95911.88
2017-11-04T11:27:08.114Z,95915.11
2017-11-04T11:29:35.740Z,95914.17
2017-11-04T11:32:06.375Z,95910.69
2017-11-04T11:34:33.983Z,95914.70
2017-11-04T11:37:01.562Z,95904.52
2017-11-04T11:39:29.810Z,95903.16
2017-11-04T11:41:57.424Z,95901.89
2017-11-04T11:44:25.066Z,95904.84
2017-11-04T11:46:53.562Z,95900.41
2017-11-04T11:49:21.493Z,95899.12
2017-11-04T11:51:49.947Z,95898.22
2017-11-04T11:54:17.594Z,95904.86
2017-11-04T11:56:45.207Z,95901.03
2017-11-04T11:59:14.352Z,95897.16
2017-11-04T12:01:42.113Z,95895.38
2017-11-04T12:04:09.878Z,95894.11
2017-11-04T12:06:37.499Z,95894.76
2017-11-04T12:09:05.451Z,95898.38
2017-11-04T12:11:33.103Z,95891.48
2017-11-04T12:14:00.675Z,95888.55
2017-11-04T12:16:28.261Z,95885.75
2017-11-04T12:18:55.881Z,95878.78
2017-11-04T12:21:23.457Z,95877.70
2017-11-04T12:23:51.061Z,95880.63
2017-11-04T12:26:18.816Z,95881.53
2017-11-04T12:28:46.389Z,95881.73
2017-11-04T12:31:14.744Z,95884.26
2017-11-04T12:33:42.583Z,95876.73
2017-11-04T12:36:10.283Z,95879.34
2017-11-04T12:38:37.868Z,95878.63
2017-11-04T12:41:05.857Z,95875.53
2017-11-04T12:43:38.545Z,95875.94
2017-11-04T12:46:06.297Z,95875.63
2017-11-04T12:48:33.851Z,95880.80
2017-11-04T12:51:01.544Z,95874.75
2017-11-04T12:53:29.152Z,95882.52
2017-11-04T12:55:56.746Z,95880.00
2017-11-04T12:58:24.327Z,95878.37
2017-11-04T13:00:53.430Z,95878.88
2017-11-04T13:03:21.372Z,95879.99
2017-11-04T13:05:49.105Z,95879.50
2017-11-04T13:08:16.809Z,95873.11
2017-11-04T13:10:44.450Z,95872.88
2017-11-04T13:13:12.569Z,95873.82
2017-11-04T13:15:41.204Z,95871.41
2017-11-04T13:18:08.761Z,95871.05
2017-11-04T13:20:36.334Z,95868.58
2017-11-04T13:23:04.051Z,95870.42
2017-11-04T13:25:31.632Z,95874.68
2017-11-04T13:27:59.219Z,95870.98
2017-11-04T13:30:26.838Z,95871.88
2017-11-04T13:32:54.452Z,95872.94
2017-11-04T13:35:22.262Z,95875.77
2017-11-04T13:37:49.848Z,95879.01
2017-11-04T13:40:17.469Z,95877.95
2017-11-04T13:42:45.030Z,95872.55
2017-11-04T13:45:13.106Z,95872.81
2017-11-04T13:47:40.786Z,95879.00
2017-11-04T13:50:08.437Z,95881.69
2017-11-04T13:52:36.023Z,95882.12
2017-11-04T13:55:03.663Z,95886.98
2017-11-04T13:57:31.316Z,95882.73
2017-11-04T13:59:58.900Z,95890.40
2017-11-04T14:02:27.568Z,95889.78
2017-11-04T14:04:55.175Z,95894.13
2017-11-04T14:07:23.172Z,95894.89
2017-11-04T14:09:50.850Z,95893.19
2017-11-04T14:12:18.520Z,95897.10
2017-11-04T14:14:46.099Z,95897.35
2017-11-04T14:17:14.052Z,95897.86
2017-11-04T14:19:42.192Z,95900.95
2017-11-04T14:22:09.951Z,95905.47
2017-11-04T14:24:37.549Z,95895.46
2017-11-04T14:27:05.625Z,95906.34
2017-11-04T14:29:33.231Z,95901.25
2017-11-04T14:32:00.849Z,95900.61
2017-11-04T14:34:28.422Z,95895.62
2017-11-04T14:36:56.063Z,95892.56
2017-11-04T14:39:23.623Z,95896.42
2017-11-04T14:41:51.210Z,95893.09
2017-11-04T14:44:18.826Z,95898.44
2017-11-04T14:46:46.396Z,95896.95
2017-11-04T14:49:14.007Z,95892.05
2017-11-04T14:51:41.587Z,95893.80
2017-11-04T14:54:09.294Z,95903.37
2017-11-04T14:56:36.863Z,95902.53
2017-11-04T14:59:04.443Z,95898.90
2017-11-04T15:01:33.855Z,95905.47
2017-11-04T15:04:03.699Z,95898.50
2017-11-04T15:06:31.323Z,95897.83
2017-11-04T15:08:58.904Z,95896.45
2017-11-04T15:11:26.457Z,95887.72
2017-11-04T15:13:56.821Z,95895.50
2017-11-04T15:16:24.986Z,95893.02
2017-11-04T15:18:52.618Z,95894.72
2017-11-04T15:21:20.187Z,95893.41
2017-11-04T15:23:47.819Z,95896.25
2017-11-04T15:26:15.379Z,95893.03
2017-11-04T15:28:42.970Z,95893.34
2017-11-04T15:31:10.878Z,95894.00
2017-11-04T15:33:38.469Z,95897.34
2017-11-04T15:36:06.753Z,95889.03
2017-11-04T15:38:34.394Z,95894.98
2017-11-04T15:41:02.233Z,95904.44
2017-11-04T15:43:29.883Z,95910.25
2017-11-04T15:45:57.564Z,95909.22
2017-11-04T15:48:25.173Z,95904.95
2017-11-04T15:50:52.750Z,95900.98
2017-11-04T15:53:22.500Z,95901.95
2017-11-04T15:55:50.133Z,95902.38
2017-11-04T15:58:17.686Z,95905.12
2017-11-04T16:00:45.279Z,95900.39
2017-11-04T16:03:13.122Z,95910.78
2017-11-04T16:05:40.676Z,95903.23
2017-11-04T16:08:08.291Z,95910.75
2017-11-04T16:10:35.854Z,95918.66
2017-11-04T16:13:03.478Z,95918.06
2017-11-04T16:15:31.094Z,95914.31
2017-11-04T16:18:01.835Z,95920.80
2017-11-04T16:20:30.587Z,95928.03
2017-11-04T16:22:58.284Z,95929.34
2017-11-04T16:25:25.888Z,95923.68
2017-11-04T16:27:53.480Z,95925.37
2017-11-04T16:30:21.098Z,95922.64
2017-11-04T16:32:48.677Z,95924.41
2017-11-04T16:35:16.273Z,95929.13
2017-11-04T16:37:44.025Z,95933.80
2017-11-04T16:40:11.670Z,95927.71
2017-11-04T16:42:39.237Z,95923.70
2017-11-04T16:45:07.047Z,95924.83
2017-11-04T16:47:35.453Z,95927.48
2017-11-04T16:50:03.033Z,95927.34
2017-11-04T16:52:30.636Z,95930.00
2017-11-04T16:55:09.536Z,95933.48
2017-11-04T16:57:37.125Z,95932.77
2017-11-04T17:00:05.234Z,95933.47
2017-11-04T17:02:32.789Z,95933.27
2017-11-04T17:05:00.345Z,95931.70
2017-11-04T17:07:28.028Z,95930.41
2017-11-04T17:10:10.722Z,95925.62
2017-11-04T17:12:38.359Z,95921.15
2017-11-04T17:15:06.013Z,95924.45
2017-11-04T17:17:33.575Z,95918.77
2017-11-04T17:20:01.165Z,95920.75
2017-11-04T17:22:28.797Z,95919.89
2017-11-04T17:24:56.478Z,95922.20
2017-11-04T17:27:24.043Z,95918.29
2017-11-04T17:29:51.646Z,95916.22
2017-11-04T17:32:19.898Z,95914.98
2017-11-04T17:34:47.478Z,95913.47
2017-11-04T17:37:15.041Z,95906.77
2017-11-04T17:39:42.666Z,95917.09
2017-11-04T17:42:10.390Z,95920.53
2017-11-04T17:44:37.969Z,95916.27
2017-11-04T17:47:05.783Z,95920.32
2017-11-04T17:49:44.213Z,95918.89
2017-11-04T17:55:03.832Z,95918.25
2017-11-04T17:57:31.856Z,95920.55
2017-11-04T17:59:59.429Z,95919.20
2017-11-04T18:02:27.063Z,95918.66
2017-11-04T18:04:54.621Z,95914.63
2017-11-04T18:07:22.313Z,95915.08
2017-11-04T18:09:50.019Z,95912.16
2017-11-04T18:12:17.680Z,95909.81
2017-11-04T18:14:45.236Z,95912.27
2017-11-04T18:17:12.928Z,95914.98
2017-11-04T18:19:40.477Z,95914.50
2017-11-04T18:22:08.155Z,95903.45
2017-11-04T18:24:37.552Z,95907.27
2017-11-04T18:27:05.727Z,95892.38
2017-11-04T18:29:33.322Z,95906.89
2017-11-04T18:32:00.914Z,95900.73
2017-11-04T18:34:28.483Z,95896.38
2017-11-04T18:36:56.078Z,95899.50
2017-11-04T18:39:23.909Z,95902.11
2017-11-04T18:41:51.496Z,95902.05
2017-11-04T18:44:19.086Z,95905.94
2017-11-04T18:46:46.698Z,95903.48
2017-11-04T18:49:14.290Z,95904.48
2017-11-04T18:51:41.874Z,95902.08
2017-11-04T18:54:09.471Z,95899.21
2017-11-04T18:56:37.075Z,95899.34
2017-11-04T18:59:04.624Z,95899.88
2017-11-04T19:01:32.213Z,95902.83
2017-11-04T19:03:59.784Z,95903.56
2017-11-04T19:06:27.354Z,95904.28
2017-11-04T19:08:56.626Z,95907.05
2017-11-04T19:11:24.950Z,95904.51
2017-11-04T19:13:53.070Z,95910.59
2017-11-04T19:16:20.694Z,95907.40
2017-11-04T19:18:48.296Z,95906.78
2017-11-04T19:21:16.604Z,95907.95
2017-11-04T19:23:44.224Z,95903.38
2017-11-04T19:26:11.779Z,95902.01
2017-11-04T19:28:39.345Z,95899.73
2017-11-04T19:31:08.882Z,95907.23
2017-11-04T19:33:36.441Z,95898.70
2017-11-04T19:36:04.221Z,95905.91
2017-11-04T19:38:31.822Z,95895.50
2017-11-04T19:40:59.424Z,95896.08
2017-11-04T19:43:27.352Z,95891.95
2017-11-04T19:45:55.094Z,95900.42
2017-11-04T19:48:22.686Z,95899.01
2017-11-04T19:50:50.261Z,95896.36
2017-11-04T19:53:17.852Z,95898.69
2017-11-04T19:55:45.409Z,95904.37
2017-11-04T19:58:13.213Z,95904.47
2017-11-04T20:03:31.940Z,95897.18
2017-11-04T20:05:59.520Z,95895.22
2017-11-04T20:08:27.129Z,95893.70
2017-11-04T20:10:54.721Z,95896.77
2017-11-04T20:13:22.383Z,95896.44
2017-11-04T20:15:49.935Z,95899.83
2017-11-04T20:18:17.522Z,95903.55
2017-11-04T20:20:45.079Z,95907.37
2017-11-04T20:23:12.817Z,95905.58
2017-11-04T20:25:41.270Z,95905.95
2017-11-04T20:28:08.870Z,95903.56
2017-11-04T20:30:36.448Z,95903.52
2017-11-04T20:33:04.078Z,95899.42
2017-11-04T20:35:31.654Z,95893.36
2017-11-04T20:37:59.240Z,95897.17
2017-11-04T20:40:27.801Z,95890.90
2017-11-04T20:42:55.578Z,95881.64
2017-11-04T20:45:23.186Z,95889.78
2017-11-04T20:47:50.773Z,95883.85
2017-11-04T20:50:18.348Z,95875.25
2017-11-04T20:52:45.921Z,95874.08
2017-11-04T20:55:13.780Z,95874.39
2017-11-04T20:57:41.387Z,95867.66
2017-11-04T21:00:08.978Z,95867.78
2017-11-04T21:02:36.635Z,95870.36
2017-11-04T21:05:05.201Z,95860.98
2017-11-04T21:07:32.799Z,95863.23
2017-11-04T21:10:00.497Z,95861.93
2017-11-04T21:12:28.090Z,95860.59
2017-11-04T21:14:55.666Z,95861.39
2017-11-04T21:17:23.275Z,95856.73
2017-11-04T21:19:50.922Z,95856.45
2017-11-04T21:22:18.611Z,95857.20
2017-11-04T21:24:46.209Z,95854.66
2017-11-04T21:27:13.956Z,95851.64
2017-11-04T21:29:41.536Z,95850.31
2017-11-04T21:32:09.118Z,95854.50
2017-11-04T21:34:36.724Z,95854.66
2017-11-04T21:37:04.407Z,95852.83
2017-11-04T21:39:32.010Z,95846.28
2017-11-04T21:41:59.600Z,95848.09
2017-11-04T21:44:27.206Z,95849.34
2017-11-04T21:46:54.781Z,95850.80
2017-11-04T21:49:22.625Z,95852.93
2017-11-04T21:51:50.214Z,95849.05
2017-11-04T21:54:18.032Z,95849.59
2017-11-04T21:56:45.610Z,95848.39
2017-11-04T21:59:13.223Z,95840.27
2017-11-04T22:01:40.804Z,95835.26
2017-11-04T22:04:08.614Z,95849.95
2017-11-04T22:06:36.205Z,95850.52
2017-11-04T22:09:03.997Z,95848.42
2017-11-04T22:11:31.712Z,95854.39
2017-11-04T22:13:59.298Z,95850.83
2017-11-04T22:16:26.863Z,95844.16
2017-11-04T22:18:54.460Z,95845.12
2017-11-04T22:21:22.048Z,95834.45
2017-11-04T22:23:49.782Z,95831.27
2017-11-04T22:26:17.463Z,95828.41
2017-11-04T22:28:45.100Z,95833.02
2017-11-04T22:31:12.711Z,95830.22
2017-11-04T22:33:50.306Z,95833.45
2017-11-04T22:36:17.882Z,95825.41
2017-11-04T22:38:45.694Z,95823.01
2017-11-04T22:41:13.300Z,95817.45
2017-11-04T22:43:40.918Z,95818.46
2017-11-04T22:46:08.548Z,95814.06
2017-11-04T22:48:36.307Z,95818.16
2017-11-04T22:51:04.043Z,95813.49
2017-11-04T22:53:31.597Z,95813.25
2017-11-04T22:55:59.217Z,95809.61
2017-11-04T22:58:26.765Z,95805.08
2017-11-04T23:00:54.435Z,95808.85
2017-11-04T23:03:22.040Z,95805.86
2017-11-04T23:05:49.631Z,95800.16
2017-11-04T23:08:19.111Z,95801.55
2017-11-04T23:10:50.566Z,95806.02
2017-11-04T23:13:18.208Z,95805.41
2017-11-04T23:15:45.816Z,95799.07
2017-11-04T23:18:19.871Z,95790.18
2017-11-04T23:20:49.001Z,95789.85
2017-11-04T23:23:16.563Z,95786.19
2017-11-04T23:25:44.160Z,95783.86
2017-11-04T23:28:11.798Z,95776.30
2017-11-04T23:30:39.425Z,95773.68
2017-11-04T23:33:07.110Z,95774.56
2017-11-04T23:35:34.804Z,95776.78
2017-11-04T23:38:02.406Z,95769.90
2017-11-04T23:40:30.047Z,95773.67
2017-11-04T23:42:57.836Z,95769.23
2017-11-04T23:45:25.421Z,95765.58
2017-11-04T23:47:52.999Z,95764.38
2017-11-04T23:50:20.652Z,95762.69
2017-11-04T23:52:48.238Z,95763.19
2017-11-04T23:55:16.274Z,95763.66
2017-11-04T23:57:43.865Z,95760.72
